createdAt,value
2018-11-02T00:00:49.922Z,7.2
2018-11-02T00:01:52.228Z,7.3
2018-11-02T00:02:54.251Z,7.3
2018-11-02T00:03:56.660Z,7.3
2018-11-02T00:04:58.970Z,7.3
2018-11-02T00:06:01.431Z,7.3
2018-11-02T00:07:03.824Z,7.3
2018-11-02T00:08:05.930Z,7.3
2018-11-02T00:09:07.950Z,7.3
2018-11-02T00:10:09.983Z,7.3
2018-11-02T00:11:12.008Z,7.4
2018-11-02T00:12:14.041Z,7.4
2018-11-02T00:13:16.438Z,7.4
2018-11-02T00:14:18.472Z,7.4
2018-11-02T00:15:20.488Z,7.4
2018-11-02T00:16:23.202Z,7.4
2018-11-02T00:17:25.216Z,7.4
2018-11-02T00:18:27.256Z,7.4
2018-11-02T00:19:29.951Z,7.4
2018-11-02T00:20:31.976Z,7.4
2018-11-02T00:21:33.994Z,7.5
2018-11-02T00:22:36.004Z,7.5
2018-11-02T00:23:38.036Z,7.5
2018-11-02T00:24:40.067Z,7.5
2018-11-02T00:25:42.091Z,7.5
2018-11-02T00:26:44.110Z,7.5
2018-11-02T00:27:46.478Z,7.5
2018-11-02T00:28:48.501Z,7.6
2018-11-02T00:29:50.522Z,7.6
2018-11-02T00:30:52.541Z,7.6
2018-11-02T00:31:55.170Z,7.6
2018-11-02T00:32:57.152Z,7.6
2018-11-02T00:33:59.177Z,7.6
2018-11-02T00:35:01.502Z,7.6
2018-11-02T00:36:03.826Z,7.6
2018-11-02T00:37:06.139Z,7.6
2018-11-02T00:38:08.159Z,7.7
2018-11-02T00:39:10.189Z,7.7
2018-11-02T00:40:12.206Z,7.7
2018-11-02T00:41:14.229Z,7.7
2018-11-02T00:42:16.248Z,7.7
2018-11-02T00:43:18.272Z,7.7
2018-11-02T00:44:20.671Z,7.7
2018-11-02T00:45:22.690Z,7.8
2018-11-02T00:46:24.711Z,7.8
2018-11-02T00:47:26.735Z,7.8
2018-11-02T00:48:29.136Z,7.8
2018-11-02T00:49:31.156Z,7.8
2018-11-02T00:50:33.549Z,7.8
2018-11-02T00:51:35.971Z,7.8
2018-11-02T00:52:38.367Z,7.8
2018-11-02T00:53:40.396Z,7.8
2018-11-02T00:54:42.434Z,7.8
2018-11-02T00:55:44.438Z,7.8
2018-11-02T00:56:46.468Z,7.8
2018-11-02T00:57:48.774Z,7.8
2018-11-02T00:58:51.234Z,7.8
2018-11-02T00:59:53.257Z,7.8
2018-11-02T01:00:55.287Z,7.8
2018-11-02T01:01:57.311Z,7.8
2018-11-02T01:02:59.337Z,7.8
2018-11-02T01:04:01.643Z,7.8
2018-11-02T01:05:03.945Z,7.8
2018-11-02T01:06:06.257Z,7.8
2018-11-02T01:07:08.282Z,7.8
2018-11-02T01:08:10.293Z,7.8
2018-11-02T01:09:12.318Z,7.8
2018-11-02T01:10:14.342Z,7.8
2018-11-02T01:11:16.392Z,7.8
2018-11-02T01:12:18.393Z,7.8
2018-11-02T01:13:20.410Z,7.8
2018-11-02T01:14:22.431Z,7.7
2018-11-02T01:15:24.442Z,7.7
2018-11-02T01:16:26.525Z,7.7
2018-11-02T01:17:28.490Z,7.7
2018-11-02T01:18:30.891Z,7.6
2018-11-02T01:19:32.916Z,7.6
2018-11-02T01:20:34.920Z,7.6
2018-11-02T01:21:36.957Z,7.6
2018-11-02T01:22:38.979Z,7.6
2018-11-02T01:23:41.008Z,7.5
2018-11-02T01:24:43.018Z,7.5
2018-11-02T01:25:45.044Z,7.5
2018-11-02T01:26:47.062Z,7.5
2018-11-02T01:27:49.486Z,7.5
2018-11-02T01:28:51.782Z,7.5
2018-11-02T01:29:53.826Z,7.4
2018-11-02T01:30:55.845Z,7.4
2018-11-02T01:31:58.464Z,7.4
2018-11-02T01:33:00.781Z,7.3
2018-11-02T01:34:03.103Z,7.3
2018-11-02T01:35:05.126Z,7.3
2018-11-02T01:36:07.447Z,7.3
2018-11-02T01:37:09.760Z,7.3
2018-11-02T01:38:12.212Z,7.3
2018-11-02T01:39:14.213Z,7.3
2018-11-02T01:40:16.626Z,7.2
2018-11-02T01:41:19.306Z,7.2
2018-11-02T01:42:21.358Z,7.2
2018-11-02T01:43:23.642Z,7.2
2018-11-02T01:44:25.661Z,7.2
2018-11-02T01:45:28.016Z,7.2
2018-11-02T01:46:30.033Z,7.2
2018-11-02T01:47:33.051Z,7.2
2018-11-02T01:48:35.450Z,7.2
2018-11-02T01:49:37.481Z,7.2
2018-11-02T01:50:39.492Z,7.2
2018-11-02T01:51:41.529Z,7.2
2018-11-02T01:52:43.838Z,7.2
2018-11-02T01:53:45.847Z,7.2
2018-11-02T01:54:47.880Z,7.2
2018-11-02T01:55:49.902Z,7.2
2018-11-02T01:56:51.925Z,7.2
2018-11-02T01:57:53.957Z,7.2
2018-11-02T01:58:56.568Z,7.2
2018-11-02T01:59:58.587Z,7.2
2018-11-02T02:01:00.603Z,7.2
2018-11-02T02:02:03.022Z,7.2
2018-11-02T02:03:05.028Z,7.2
2018-11-02T02:04:07.052Z,7.2
2018-11-02T02:05:09.083Z,7.2
2018-11-02T02:06:11.100Z,7.2
2018-11-02T02:07:13.402Z,7.1
2018-11-02T02:08:15.427Z,7.1
2018-11-02T02:09:17.445Z,7.1
2018-11-02T02:10:19.471Z,7.1
2018-11-02T02:11:22.105Z,7
2018-11-02T02:12:24.124Z,7
2018-11-02T02:13:26.598Z,7
2018-11-02T02:14:28.967Z,7
2018-11-02T02:15:30.983Z,6.9
2018-11-02T02:16:33.388Z,6.9
2018-11-02T02:17:35.411Z,6.9
2018-11-02T02:18:37.419Z,6.9
2018-11-02T02:19:39.464Z,6.8
2018-11-02T02:20:41.782Z,6.8
2018-11-02T02:21:43.808Z,6.8
2018-11-02T02:22:45.813Z,6.8
2018-11-02T02:23:47.847Z,6.8
2018-11-02T02:24:49.864Z,6.7
2018-11-02T02:25:51.887Z,6.7
2018-11-02T02:26:53.917Z,6.7
2018-11-02T02:27:55.926Z,6.7
2018-11-02T02:28:57.950Z,6.7
2018-11-02T02:29:59.963Z,6.7
2018-11-02T02:31:02.374Z,6.7
2018-11-02T02:32:04.384Z,6.7
2018-11-02T02:33:06.412Z,6.7
2018-11-02T02:34:08.435Z,6.7
2018-11-02T02:35:10.451Z,6.7
2018-11-02T02:36:12.472Z,6.7
2018-11-02T02:37:14.492Z,6.7
2018-11-02T02:38:16.512Z,6.7
2018-11-02T02:39:18.531Z,6.6
2018-11-02T02:40:20.563Z,6.6
2018-11-02T02:41:22.969Z,6.6
2018-11-02T02:42:24.987Z,6.6
2018-11-02T02:43:27.014Z,6.6
2018-11-02T02:44:29.050Z,6.5
2018-11-02T02:45:31.065Z,6.5
2018-11-02T02:46:33.082Z,6.5
2018-11-02T02:47:35.112Z,6.5
2018-11-02T02:48:37.126Z,6.5
2018-11-02T02:49:39.587Z,6.4
2018-11-02T02:50:41.893Z,6.4
2018-11-02T02:51:44.204Z,6.4
2018-11-02T02:52:46.268Z,6.4
2018-11-02T02:53:48.252Z,6.3
2018-11-02T02:54:50.276Z,6.3
2018-11-02T02:55:52.289Z,6.3
2018-11-02T02:56:54.321Z,6.3
2018-11-02T02:57:56.724Z,6.3
2018-11-02T02:58:59.415Z,6.2
2018-11-02T03:00:01.452Z,6.2
2018-11-02T03:01:04.128Z,6.2
2018-11-02T03:02:06.147Z,6.2
2018-11-02T03:03:08.165Z,6.2
2018-11-02T03:04:10.581Z,6.1
2018-11-02T03:05:12.889Z,6.1
2018-11-02T03:06:14.909Z,6.1
2018-11-02T03:07:16.938Z,6.1
2018-11-02T03:08:18.948Z,6.1
2018-11-02T03:09:21.605Z,6.1
2018-11-02T03:10:24.081Z,6.1
2018-11-02T03:11:26.463Z,6.1
2018-11-02T03:12:28.483Z,6.1
2018-11-02T03:13:30.513Z,6.1
2018-11-02T03:14:32.531Z,6
2018-11-02T03:15:34.555Z,6.1
2018-11-02T03:16:36.572Z,6.1
2018-11-02T03:17:38.579Z,6.1
2018-11-02T03:18:41.119Z,6.1
2018-11-02T03:19:43.043Z,6.1
2018-11-02T03:20:45.057Z,6.1
2018-11-02T03:21:47.083Z,6
2018-11-02T03:22:49.105Z,6
2018-11-02T03:23:51.124Z,6
2018-11-02T03:24:53.544Z,6
2018-11-02T03:25:55.938Z,6
2018-11-02T03:26:57.959Z,6
2018-11-02T03:27:59.969Z,6
2018-11-02T03:29:02.788Z,5.9
2018-11-02T03:30:05.081Z,6
2018-11-02T03:31:07.099Z,5.9
2018-11-02T03:32:09.511Z,5.9
2018-11-02T03:33:11.825Z,5.9
2018-11-02T03:34:13.857Z,5.9
2018-11-02T03:35:15.875Z,5.9
2018-11-02T03:36:18.180Z,5.9
2018-11-02T03:37:20.188Z,5.9
2018-11-02T03:38:22.216Z,5.9
2018-11-02T03:39:24.238Z,5.9
2018-11-02T03:40:26.251Z,5.9
2018-11-02T03:41:28.564Z,5.8
2018-11-02T03:42:30.572Z,5.8
2018-11-02T03:43:32.592Z,5.8
2018-11-02T03:44:34.655Z,5.8
2018-11-02T03:45:36.645Z,5.8
2018-11-02T03:46:38.654Z,5.8
2018-11-02T03:47:40.673Z,5.8
2018-11-02T03:48:42.692Z,5.8
2018-11-02T03:49:44.710Z,5.8
2018-11-02T03:50:47.037Z,5.8
2018-11-02T03:51:49.057Z,5.8
2018-11-02T03:52:51.070Z,5.8
2018-11-02T03:53:53.103Z,5.8
2018-11-02T03:54:55.496Z,5.8
2018-11-02T03:55:59.406Z,5.8
2018-11-02T03:57:01.662Z,5.8
2018-11-02T03:58:03.731Z,5.8
2018-11-02T03:59:05.748Z,5.7
2018-11-02T04:00:07.767Z,5.7
2018-11-02T04:01:09.780Z,5.7
2018-11-02T04:02:11.813Z,5.7
2018-11-02T04:03:14.143Z,5.7
2018-11-02T04:04:16.453Z,5.7
2018-11-02T04:05:18.767Z,5.6
2018-11-02T04:06:21.486Z,5.7
2018-11-02T04:07:24.224Z,5.6
2018-11-02T04:08:26.186Z,5.6
2018-11-02T04:09:28.633Z,5.6
2018-11-02T04:10:30.506Z,5.6
2018-11-02T04:11:32.530Z,5.7
2018-11-02T04:12:34.551Z,5.7
2018-11-02T04:13:36.862Z,5.6
2018-11-02T04:14:38.893Z,5.6
2018-11-02T04:15:40.906Z,5.6
2018-11-02T04:16:43.215Z,5.6
2018-11-02T04:17:45.236Z,5.6
2018-11-02T04:18:47.257Z,5.6
2018-11-02T04:19:49.264Z,5.6
2018-11-02T04:20:51.282Z,5.6
2018-11-02T04:21:53.299Z,5.6
2018-11-02T04:22:55.317Z,5.6
2018-11-02T04:23:58.436Z,5.6
2018-11-02T04:25:00.453Z,5.6
2018-11-02T04:26:02.478Z,5.6
2018-11-02T04:27:04.513Z,5.6
2018-11-02T04:28:06.553Z,5.6
2018-11-02T04:29:08.550Z,5.6
2018-11-02T04:30:11.173Z,5.6
2018-11-02T04:31:13.184Z,5.6
2018-11-02T04:32:15.209Z,5.6
2018-11-02T04:33:17.228Z,5.7
2018-11-02T04:34:19.251Z,5.7
2018-11-02T04:35:21.258Z,5.7
2018-11-02T04:36:23.710Z,5.7
2018-11-02T04:37:25.727Z,5.7
2018-11-02T04:38:27.786Z,5.7
2018-11-02T04:39:30.471Z,5.7
2018-11-02T04:40:32.800Z,5.7
2018-11-02T04:41:35.422Z,5.7
2018-11-02T04:42:37.437Z,5.7
2018-11-02T04:43:39.514Z,5.7
2018-11-02T04:44:41.521Z,5.7
2018-11-02T04:45:43.546Z,5.7
2018-11-02T04:46:45.991Z,5.7
2018-11-02T04:47:47.999Z,5.7
2018-11-02T04:48:50.029Z,5.7
2018-11-02T04:49:52.341Z,5.7
2018-11-02T04:50:55.094Z,5.7
2018-11-02T04:51:57.716Z,5.7
2018-11-02T04:52:59.735Z,5.7
2018-11-02T04:54:02.072Z,5.7
2018-11-02T04:55:04.076Z,5.7
2018-11-02T04:56:06.095Z,5.7
2018-11-02T04:57:08.107Z,5.7
2018-11-02T04:58:10.124Z,5.7
2018-11-02T04:59:12.557Z,5.7
2018-11-02T05:00:14.852Z,5.7
2018-11-02T05:01:16.872Z,5.7
2018-11-02T05:02:18.889Z,5.8
2018-11-02T05:03:20.910Z,5.8
2018-11-02T05:04:22.950Z,5.8
2018-11-02T05:05:24.963Z,5.8
2018-11-02T05:06:26.984Z,5.8
2018-11-02T05:07:29.000Z,5.9
2018-11-02T05:08:31.418Z,6
2018-11-02T05:09:34.089Z,6
2018-11-02T05:10:36.076Z,6.1
2018-11-02T05:11:39.052Z,6.1
2018-11-02T05:12:41.040Z,6.2
2018-11-02T05:13:43.049Z,6.2
2018-11-02T05:14:45.069Z,6.2
2018-11-02T05:15:47.082Z,6.3
2018-11-02T05:16:49.112Z,6.3
2018-11-02T05:17:51.119Z,6.3
2018-11-02T05:18:53.137Z,6.4
2018-11-02T05:19:55.760Z,6.5
2018-11-02T05:20:57.776Z,6.5
2018-11-02T05:22:00.182Z,6.5
2018-11-02T05:23:02.493Z,6.5
2018-11-02T05:24:04.504Z,6.5
2018-11-02T05:25:06.810Z,6.5
2018-11-02T05:26:08.841Z,6.6
2018-11-02T05:27:11.445Z,6.6
2018-11-02T05:28:13.753Z,6.7
2018-11-02T05:29:16.075Z,6.7
2018-11-02T05:30:18.771Z,6.7
2018-11-02T05:31:20.799Z,6.8
2018-11-02T05:32:23.104Z,6.8
2018-11-02T05:33:25.502Z,6.8
2018-11-02T05:34:27.526Z,6.8
2018-11-02T05:35:29.541Z,6.8
2018-11-02T05:36:31.846Z,6.9
2018-11-02T05:37:33.890Z,6.9
2018-11-02T05:38:35.885Z,7
2018-11-02T05:39:38.260Z,7
2018-11-02T05:40:40.212Z,7
2018-11-02T05:41:42.236Z,7
2018-11-02T05:42:44.262Z,7
2018-11-02T05:43:46.651Z,7.1
2018-11-02T05:44:48.672Z,7.1
2018-11-02T05:45:51.064Z,7.2
2018-11-02T05:46:53.475Z,7.2
2018-11-02T05:47:55.497Z,7.2
2018-11-02T05:48:57.517Z,7.2
2018-11-02T05:49:59.527Z,7.2
2018-11-02T05:51:01.558Z,7.3
2018-11-02T05:52:03.871Z,7.2
2018-11-02T05:53:05.891Z,7.2
2018-11-02T05:54:07.961Z,7.2
2018-11-02T05:55:10.369Z,7.2
2018-11-02T05:56:12.389Z,7.2
2018-11-02T05:57:14.400Z,7.2
2018-11-02T05:58:16.422Z,7.3
2018-11-02T05:59:18.451Z,7.3
2018-11-02T06:00:20.469Z,7.3
2018-11-02T06:01:22.524Z,7.3
2018-11-02T06:02:24.809Z,7.3
2018-11-02T06:03:26.841Z,7.3
2018-11-02T06:04:28.839Z,7.3
2018-11-02T06:05:31.237Z,7.3
2018-11-02T06:06:33.215Z,7.3
2018-11-02T06:07:35.551Z,7.3
2018-11-02T06:08:37.882Z,7.3
2018-11-02T06:09:39.899Z,7.3
2018-11-02T06:10:41.933Z,7.3
2018-11-02T06:11:43.948Z,7.3
2018-11-02T06:12:46.265Z,7.3
2018-11-02T06:13:48.273Z,7.3
2018-11-02T06:14:50.722Z,7.3
2018-11-02T06:15:53.306Z,7.3
2018-11-02T06:16:55.842Z,7.3
2018-11-02T06:17:58.231Z,7.3
2018-11-02T06:19:00.542Z,7.3
2018-11-02T06:20:02.560Z,7.3
2018-11-02T06:21:04.581Z,7.3
2018-11-02T06:22:06.604Z,7.3
2018-11-02T06:23:08.610Z,7.3
2018-11-02T06:24:11.660Z,7.4
2018-11-02T06:25:14.278Z,7.4
2018-11-02T06:26:16.675Z,7.4
2018-11-02T06:27:18.996Z,7.4
2018-11-02T06:28:21.024Z,7.4
2018-11-02T06:29:23.034Z,7.4
2018-11-02T06:30:25.824Z,7.4
2018-11-02T06:31:28.228Z,7.4
2018-11-02T06:32:30.295Z,7.4
2018-11-02T06:33:32.310Z,7.4
2018-11-02T06:34:34.629Z,7.4
2018-11-02T06:35:37.035Z,7.4
2018-11-02T06:36:39.049Z,7.4
2018-11-02T06:37:41.069Z,7.4
2018-11-02T06:38:43.186Z,7.4
2018-11-02T06:39:45.112Z,7.4
2018-11-02T06:40:47.142Z,7.4
2018-11-02T06:41:49.161Z,7.4
2018-11-02T06:42:51.183Z,7.4
2018-11-02T06:43:53.215Z,7.4
2018-11-02T06:44:55.316Z,7.4
2018-11-02T06:45:57.249Z,7.4
2018-11-02T06:46:59.571Z,7.4
2018-11-02T06:48:01.599Z,7.4
2018-11-02T06:49:03.610Z,7.4
2018-11-02T06:50:05.640Z,7.5
2018-11-02T06:51:08.875Z,7.5
2018-11-02T06:52:10.885Z,7.5
2018-11-02T06:53:12.915Z,7.5
2018-11-02T06:54:14.932Z,7.5
2018-11-02T06:55:16.958Z,7.5
2018-11-02T06:56:18.967Z,7.5
2018-11-02T06:57:21.297Z,7.5
2018-11-02T06:58:23.322Z,7.6
2018-11-02T06:59:25.999Z,7.6
2018-11-02T07:00:28.077Z,7.6
2018-11-02T07:01:29.919Z,7.6
2018-11-02T07:02:31.943Z,7.7
2018-11-02T07:03:33.967Z,7.7
2018-11-02T07:04:36.277Z,7.8
2018-11-02T07:05:38.672Z,7.9
2018-11-02T07:06:40.699Z,8
2018-11-02T07:07:43.625Z,8
2018-11-02T07:08:45.467Z,8.2
2018-11-02T07:09:47.501Z,8.2
2018-11-02T07:10:49.517Z,8.2
2018-11-02T07:11:51.534Z,8.3
2018-11-02T07:12:53.568Z,8.4
2018-11-02T07:13:55.585Z,8.4
2018-11-02T07:14:57.606Z,8.5
2018-11-02T07:15:59.653Z,8.6
2018-11-02T07:17:01.671Z,8.6
2018-11-02T07:18:03.665Z,8.6
2018-11-02T07:19:05.687Z,8.7
2018-11-02T07:20:07.713Z,8.7
2018-11-02T07:21:10.008Z,8.8
2018-11-02T07:22:12.039Z,8.7
2018-11-02T07:23:14.059Z,8.8
2018-11-02T07:24:16.079Z,8.8
2018-11-02T07:25:18.864Z,8.9
2018-11-02T07:26:21.010Z,8.9
2018-11-02T07:27:23.032Z,9.1
2018-11-02T07:28:25.050Z,9
2018-11-02T07:29:27.083Z,9.1
2018-11-02T07:30:29.095Z,9.2
2018-11-02T07:31:31.121Z,9.3
2018-11-02T07:32:33.151Z,9.3
2018-11-02T07:33:35.169Z,9.4
2018-11-02T07:34:37.711Z,9.4
2018-11-02T07:35:40.427Z,9.5
2018-11-02T07:36:42.439Z,9.6
2018-11-02T07:37:44.803Z,9.6
2018-11-02T07:38:46.836Z,9.6
2018-11-02T07:39:48.862Z,9.7
2018-11-02T07:40:50.886Z,9.9
2018-11-02T07:41:52.911Z,9.9
2018-11-02T07:42:55.312Z,9.9
2018-11-02T07:43:57.641Z,9.9
2018-11-02T07:44:59.966Z,10
2018-11-02T07:46:02.291Z,10.1
2018-11-02T07:47:04.305Z,10.3
2018-11-02T07:48:06.328Z,10.2
2018-11-02T07:49:08.352Z,10.2
2018-11-02T07:50:10.368Z,10.4
2018-11-02T07:51:12.398Z,10.5
2018-11-02T07:52:14.421Z,10.5
2018-11-02T07:53:16.455Z,10.5
2018-11-02T07:54:18.757Z,10.4
2018-11-02T07:55:21.326Z,10.5
2018-11-02T07:56:23.350Z,10.7
2018-11-02T07:57:25.371Z,10.6
2018-11-02T07:58:27.406Z,10.7
2018-11-02T07:59:29.452Z,10.9
2018-11-02T08:00:32.439Z,11
2018-11-02T08:01:34.555Z,10.9
2018-11-02T08:02:36.494Z,11.1
2018-11-02T08:03:38.507Z,11
2018-11-02T08:04:40.828Z,11
2018-11-02T08:05:43.169Z,11.2
2018-11-02T08:06:45.188Z,10.9
2018-11-02T08:07:47.609Z,11
2018-11-02T08:08:49.644Z,11.3
2018-11-02T08:09:51.666Z,11.2
2018-11-02T08:10:53.695Z,11.4
2018-11-02T08:11:55.737Z,11.4
2018-11-02T08:12:58.151Z,11.5
2018-11-02T08:14:00.460Z,11.6
2018-11-02T08:15:02.488Z,11.5
2018-11-02T08:16:04.511Z,11.4
2018-11-02T08:17:06.532Z,11.8
2018-11-02T08:18:08.850Z,11.7
2018-11-02T08:19:11.319Z,11.7
2018-11-02T08:20:13.359Z,11.9
2018-11-02T08:21:15.389Z,11.9
2018-11-02T08:22:17.424Z,11.9
2018-11-02T08:23:19.444Z,11.9
2018-11-02T08:24:21.866Z,12
2018-11-02T08:25:23.815Z,12
2018-11-02T08:26:26.233Z,12.1
2018-11-02T08:27:28.250Z,12.1
2018-11-02T08:28:30.293Z,12
2018-11-02T08:29:32.707Z,12.4
2018-11-02T08:30:35.124Z,12.3
2018-11-02T08:31:37.164Z,12.2
2018-11-02T08:32:39.189Z,12.4
2018-11-02T08:33:41.215Z,12.6
2018-11-02T08:34:43.621Z,12.7
2018-11-02T08:35:45.664Z,12.6
2018-11-02T08:36:47.675Z,12.6
2018-11-02T08:37:49.990Z,12.9
2018-11-02T08:38:52.027Z,12.8
2018-11-02T08:39:54.326Z,12.8
2018-11-02T08:40:56.956Z,12.8
2018-11-02T08:41:58.982Z,12.8
2018-11-02T08:43:01.009Z,12.9
2018-11-02T08:44:03.322Z,13.1
2018-11-02T08:45:05.362Z,13
2018-11-02T08:46:07.395Z,12.9
2018-11-02T08:47:09.425Z,12.6
2018-11-02T08:48:11.469Z,12.4
2018-11-02T08:49:13.489Z,12.3
2018-11-02T08:50:15.517Z,12.4
2018-11-02T08:51:17.555Z,12.6
2018-11-02T08:52:20.192Z,12.7
2018-11-02T08:53:22.521Z,12.7
2018-11-02T08:54:24.557Z,12.8
2018-11-02T08:55:26.588Z,12.7
2018-11-02T08:56:28.626Z,12.7
2018-11-02T08:57:31.058Z,12.9
2018-11-02T08:58:33.315Z,13.1
2018-11-02T08:59:36.734Z,13
2018-11-02T09:00:40.062Z,12.8
2018-11-02T09:01:42.108Z,13
2018-11-02T09:02:44.426Z,13
2018-11-02T09:03:46.458Z,13.3
2018-11-02T09:04:48.874Z,13.3
2018-11-02T09:05:50.833Z,13.2
2018-11-02T09:06:52.863Z,13.5
2018-11-02T09:07:55.176Z,13.5
2018-11-02T09:08:57.216Z,13.7
2018-11-02T09:09:59.236Z,13.6
2018-11-02T09:11:01.268Z,13.6
2018-11-02T09:12:03.344Z,13.7
2018-11-02T09:13:05.620Z,13.6
2018-11-02T09:14:07.946Z,13.7
2018-11-02T09:15:10.362Z,13.6
2018-11-02T09:16:12.956Z,13.6
2018-11-02T09:17:14.993Z,13.5
2018-11-02T09:18:17.341Z,13.8
2018-11-02T09:19:20.285Z,13.8
2018-11-02T09:20:22.451Z,13.9
2018-11-02T09:21:24.483Z,13.3
2018-11-02T09:22:26.509Z,13.3
2018-11-02T09:23:28.539Z,13.3
2018-11-02T09:24:30.576Z,13.3
2018-11-02T09:25:32.592Z,13.2
2018-11-02T09:26:34.982Z,12.8
2018-11-02T09:27:37.107Z,12.8
2018-11-02T09:28:39.045Z,13.1
2018-11-02T09:29:41.090Z,12.9
2018-11-02T09:30:43.119Z,13
2018-11-02T09:31:45.151Z,12.9
2018-11-02T09:32:47.566Z,12.9
2018-11-02T09:33:49.682Z,12.8
2018-11-02T09:34:51.632Z,12.7
2018-11-02T09:35:53.664Z,12.7
2018-11-02T09:36:55.698Z,12.5
2018-11-02T09:37:58.109Z,12.5
2018-11-02T09:39:00.151Z,12.5
2018-11-02T09:40:02.185Z,12.4
2018-11-02T09:41:04.508Z,12.3
2018-11-02T09:42:06.532Z,12.3
2018-11-02T09:43:08.568Z,12.3
2018-11-02T09:44:10.598Z,12.4
2018-11-02T09:45:12.919Z,12.3
2018-11-02T09:46:14.962Z,12.3
2018-11-02T09:47:17.304Z,12.2
2018-11-02T09:48:19.331Z,12.2
2018-11-02T09:49:21.371Z,12.3
2018-11-02T09:50:23.704Z,12.3
2018-11-02T09:51:26.211Z,12.2
2018-11-02T09:52:28.614Z,12.2
2018-11-02T09:53:30.640Z,12.1
2018-11-02T09:54:32.667Z,12.1
2018-11-02T09:55:35.093Z,12.1
2018-11-02T09:56:37.122Z,12.1
2018-11-02T09:57:39.158Z,12.2
2018-11-02T09:58:41.187Z,12.1
2018-11-02T09:59:43.507Z,12.2
2018-11-02T10:00:45.536Z,12.1
2018-11-02T10:01:47.565Z,12.1
2018-11-02T10:02:49.968Z,12.1
2018-11-02T10:03:52.007Z,12.1
2018-11-02T10:04:54.043Z,12
2018-11-02T10:05:56.069Z,12
2018-11-02T10:06:58.381Z,12
2018-11-02T10:08:00.416Z,11.9
2018-11-02T10:09:02.819Z,12
2018-11-02T10:10:04.793Z,11.9
2018-11-02T10:11:07.144Z,12
2018-11-02T10:12:09.166Z,12
2018-11-02T10:13:12.149Z,12
2018-11-02T10:14:14.170Z,12
2018-11-02T10:15:16.207Z,12
2018-11-02T10:16:18.230Z,12
2018-11-02T10:17:20.258Z,12
2018-11-02T10:18:22.866Z,11.9
2018-11-02T10:19:24.898Z,12
2018-11-02T10:20:26.916Z,11.9
2018-11-02T10:21:28.945Z,11.9
2018-11-02T10:22:30.977Z,11.9
2018-11-02T10:23:33.009Z,11.9
2018-11-02T10:24:35.019Z,11.8
2018-11-02T10:25:37.047Z,11.9
2018-11-02T10:26:39.124Z,11.9
2018-11-02T10:27:42.161Z,11.9
2018-11-02T10:28:44.500Z,11.8
2018-11-02T10:29:46.572Z,11.8
2018-11-02T10:30:48.847Z,11.9
2018-11-02T10:31:51.275Z,11.9
2018-11-02T10:32:53.762Z,11.8
2018-11-02T10:33:55.726Z,11.8
2018-11-02T10:34:57.756Z,11.8
2018-11-02T10:35:59.843Z,11.8
2018-11-02T10:37:01.808Z,11.9
2018-11-02T10:38:03.836Z,11.8
2018-11-02T10:39:05.878Z,11.8
2018-11-02T10:40:08.187Z,11.8
2018-11-02T10:41:10.220Z,11.9
2018-11-02T10:42:12.543Z,11.9
2018-11-02T10:43:14.569Z,11.8
2018-11-02T10:44:16.633Z,11.9
2018-11-02T10:45:18.654Z,11.9
2018-11-02T10:46:20.662Z,11.9
2018-11-02T10:47:22.684Z,12
2018-11-02T10:48:24.720Z,12
2018-11-02T10:49:26.875Z,12.1
2018-11-02T10:50:28.771Z,12.1
2018-11-02T10:51:30.804Z,12.3
2018-11-02T10:52:33.208Z,12.4
2018-11-02T10:53:35.238Z,12.5
2018-11-02T10:54:37.406Z,12.7
2018-11-02T10:55:39.310Z,12.8
2018-11-02T10:56:41.779Z,12.9
2018-11-02T10:57:44.478Z,13
2018-11-02T10:58:46.899Z,13
2018-11-02T10:59:48.929Z,13.1
2018-11-02T11:00:51.588Z,12.9
2018-11-02T11:01:53.505Z,13
2018-11-02T11:02:55.531Z,13
2018-11-02T11:03:57.553Z,13
2018-11-02T11:04:59.593Z,13
2018-11-02T11:06:01.626Z,13
2018-11-02T11:07:03.656Z,13
2018-11-02T11:08:05.975Z,13
2018-11-02T11:09:08.375Z,13
2018-11-02T11:10:10.409Z,12.9
2018-11-02T11:11:12.826Z,12.8
2018-11-02T11:12:15.424Z,12.8
2018-11-02T11:13:19.603Z,12.8
2018-11-02T11:14:21.344Z,12.8
2018-11-02T11:15:23.378Z,12.8
2018-11-02T11:16:25.407Z,12.8
2018-11-02T11:17:27.746Z,12.8
2018-11-02T11:18:30.147Z,12.8
2018-11-02T11:19:32.177Z,12.7
2018-11-02T11:20:34.203Z,12.6
2018-11-02T11:21:36.660Z,12.6
2018-11-02T11:22:38.676Z,12.6
2018-11-02T11:23:40.704Z,12.6
2018-11-02T11:24:42.764Z,12.6
2018-11-02T11:25:45.141Z,12.6
2018-11-02T11:26:47.179Z,12.6
2018-11-02T11:27:49.505Z,12.6
2018-11-02T11:28:51.822Z,12.6
2018-11-02T11:29:53.851Z,12.7
2018-11-02T11:30:55.894Z,12.8
2018-11-02T11:31:57.926Z,12.9
2018-11-02T11:32:59.955Z,12.9
2018-11-02T11:34:02.376Z,13
2018-11-02T11:35:04.441Z,12.9
2018-11-02T11:36:06.755Z,12.9
2018-11-02T11:37:08.780Z,12.9
2018-11-02T11:38:11.204Z,12.9
2018-11-02T11:39:13.519Z,12.9
2018-11-02T11:40:15.547Z,12.9
2018-11-02T11:41:17.581Z,12.9
2018-11-02T11:42:19.601Z,12.9
2018-11-02T11:43:21.636Z,13
2018-11-02T11:44:23.668Z,13
2018-11-02T11:45:25.703Z,12.9
2018-11-02T11:46:27.720Z,12.9
2018-11-02T11:47:30.055Z,13
2018-11-02T11:48:32.122Z,13
2018-11-02T11:49:34.504Z,13.2
2018-11-02T11:50:36.544Z,13.2
2018-11-02T11:51:38.561Z,13.2
2018-11-02T11:52:40.588Z,13.2
2018-11-02T11:53:42.613Z,13.1
2018-11-02T11:54:45.047Z,13
2018-11-02T11:55:47.066Z,13
2018-11-02T11:56:49.095Z,13.3
2018-11-02T11:57:51.142Z,13.5
2018-11-02T11:58:53.552Z,13.5
2018-11-02T11:59:55.587Z,13.6
2018-11-02T12:00:58.002Z,13.5
2018-11-02T12:02:00.418Z,13.3
2018-11-02T12:03:02.832Z,13.2
2018-11-02T12:04:04.874Z,13.3
2018-11-02T12:05:06.903Z,13.3
2018-11-02T12:06:08.935Z,13.4
2018-11-02T12:07:11.385Z,13.8
2018-11-02T12:08:13.405Z,13.8
2018-11-02T12:09:15.464Z,13.9
2018-11-02T12:10:18.407Z,13.8
2018-11-02T12:11:21.255Z,14
2018-11-02T12:12:23.294Z,14
2018-11-02T12:13:26.013Z,14.1
2018-11-02T12:14:28.045Z,14.2
2018-11-02T12:15:30.707Z,14.1
2018-11-02T12:16:32.733Z,13.8
2018-11-02T12:17:34.769Z,13.9
2018-11-02T12:18:36.796Z,13.8
2018-11-02T12:19:39.163Z,13.8
2018-11-02T12:20:41.186Z,13.6
2018-11-02T12:21:43.272Z,13.6
2018-11-02T12:22:45.256Z,13.6
2018-11-02T12:23:47.274Z,13.4
2018-11-02T12:24:49.311Z,13.5
2018-11-02T12:25:51.340Z,13.3
2018-11-02T12:26:53.393Z,13
2018-11-02T12:27:55.711Z,13
2018-11-02T12:28:57.850Z,13.1
2018-11-02T12:30:00.472Z,13.1
2018-11-02T12:31:02.887Z,13.2
2018-11-02T12:32:05.234Z,13.2
2018-11-02T12:33:07.255Z,13.2
2018-11-02T12:34:09.595Z,13.4
2018-11-02T12:35:11.633Z,13.6
2018-11-02T12:36:13.665Z,13.7
2018-11-02T12:37:16.144Z,13.8
2018-11-02T12:38:18.402Z,13.9
2018-11-02T12:39:20.717Z,14.1
2018-11-02T12:40:23.177Z,14.2
2018-11-02T12:41:25.201Z,14.1
2018-11-02T12:42:27.229Z,14.2
2018-11-02T12:43:29.725Z,14.4
2018-11-02T12:44:31.622Z,14.5
2018-11-02T12:45:33.660Z,14.6
2018-11-02T12:46:35.693Z,14.6
2018-11-02T12:47:37.769Z,14.5
2018-11-02T12:48:40.004Z,14.7
2018-11-02T12:49:42.126Z,14.6
2018-11-02T12:50:43.830Z,14.7
2018-11-02T12:51:46.241Z,14.7
2018-11-02T12:52:48.589Z,14.4
2018-11-02T12:53:50.610Z,14.3
2018-11-02T12:54:52.645Z,14.3
2018-11-02T12:55:54.680Z,14.3
2018-11-02T12:56:56.695Z,14.2
2018-11-02T12:57:58.741Z,14.2
2018-11-02T12:59:01.153Z,14.2
2018-11-02T13:00:03.168Z,14.3
2018-11-02T13:01:05.194Z,14.2
2018-11-02T13:02:07.236Z,14.3
2018-11-02T13:03:09.274Z,14.2
2018-11-02T13:04:11.599Z,14.3
2018-11-02T13:05:14.384Z,14.3
2018-11-02T13:06:16.411Z,14.3
2018-11-02T13:07:18.447Z,14.3
2018-11-02T13:08:20.489Z,14.6
2018-11-02T13:09:22.595Z,14.6
2018-11-02T13:10:24.544Z,14.5
2018-11-02T13:11:26.575Z,14.1
2018-11-02T13:12:28.997Z,14.2
2018-11-02T13:13:31.023Z,14.6
2018-11-02T13:14:33.069Z,14.5
2018-11-02T13:15:35.533Z,14.2
2018-11-02T13:16:37.512Z,14.2
2018-11-02T13:17:39.720Z,14.2
2018-11-02T13:18:42.208Z,14.3
2018-11-02T13:19:44.188Z,14.2
2018-11-02T13:20:46.220Z,14.4
2018-11-02T13:21:48.945Z,14.3
2018-11-02T13:22:51.529Z,14.3
2018-11-02T13:23:53.558Z,14
2018-11-02T13:24:55.594Z,14.1
2018-11-02T13:25:57.799Z,14
2018-11-02T13:26:59.946Z,14
2018-11-02T13:28:01.975Z,13.9
2018-11-02T13:29:04.010Z,13.9
2018-11-02T13:30:07.209Z,13.8
2018-11-02T13:31:09.665Z,13.6
2018-11-02T13:32:11.679Z,13.9
2018-11-02T13:33:13.713Z,13.7
2018-11-02T13:34:15.737Z,13.6
2018-11-02T13:35:18.348Z,13.5
2018-11-02T13:36:20.425Z,13.6
2018-11-02T13:37:22.801Z,13.4
2018-11-02T13:38:24.848Z,13.3
2018-11-02T13:39:27.248Z,13.4
2018-11-02T13:40:29.691Z,13.4
2018-11-02T13:41:31.736Z,13.3
2018-11-02T13:42:33.763Z,13.3
2018-11-02T13:43:36.219Z,13.2
2018-11-02T13:44:38.220Z,13.2
2018-11-02T13:45:40.568Z,13.1
2018-11-02T13:46:42.630Z,13.1
2018-11-02T13:47:45.018Z,13.1
2018-11-02T13:48:47.052Z,13.1
2018-11-02T13:49:49.079Z,13.1
2018-11-02T13:50:51.125Z,12.9
2018-11-02T13:51:53.710Z,12.9
2018-11-02T13:52:55.739Z,12.9
2018-11-02T13:53:57.775Z,12.9
2018-11-02T13:54:59.793Z,12.7
2018-11-02T13:56:01.831Z,12.8
2018-11-02T13:57:03.863Z,12.7
2018-11-02T13:58:05.896Z,12.8
2018-11-02T13:59:08.220Z,12.7
2018-11-02T14:00:10.305Z,12.6
2018-11-02T14:01:12.805Z,12.6
2018-11-02T14:02:15.210Z,12.5
2018-11-02T14:03:17.238Z,12.5
2018-11-02T14:04:19.281Z,12.6
2018-11-02T14:05:21.316Z,12.6
2018-11-02T14:06:23.353Z,12.6
2018-11-02T14:07:25.378Z,12.4
2018-11-02T14:08:27.803Z,12.5